createdAt,value
2022-10-15T00:05:32.826Z,101556.78
2022-10-15T00:08:38.360Z,101554.75
2022-10-15T00:14:58.172Z,101566.47
2022-10-15T00:18:04.112Z,101568.94
2022-10-15T00:24:05.321Z,101558.91
2022-10-15T00:30:16.366Z,101546.53
2022-10-15T00:33:03.913Z,101542.78
2022-10-15T00:36:12.360Z,101537.63
2022-10-15T00:39:30.838Z,101544.69
2022-10-15T00:42:10.901Z,101541.78
2022-10-15T00:48:23.132Z,101535.38
2022-10-15T00:54:04.910Z,101541.00
2022-10-15T00:56:41.910Z,101542.03
2022-10-15T00:59:19.486Z,101549.91
2022-10-15T01:01:52.798Z,101546.22
2022-10-15T01:04:27.983Z,101544.75
2022-10-15T01:07:10.500Z,101538.34
2022-10-15T01:09:47.518Z,101524.44
2022-10-15T01:12:58.280Z,101527.56
2022-10-15T01:15:54.267Z,101517.44
2022-10-15T01:18:44.424Z,101528.03
2022-10-15T01:21:57.119Z,101519.34
2022-10-15T01:24:54.822Z,101517.94
2022-10-15T01:27:50.009Z,101514.44
2022-10-15T01:30:42.489Z,101505.94
2022-10-15T01:33:32.243Z,101505.09
2022-10-15T01:36:37.734Z,101502.63
2022-10-15T01:39:32.359Z,101498.28
2022-10-15T01:42:06.917Z,101493.72
2022-10-15T01:44:40.137Z,101499.22
2022-10-15T01:47:26.222Z,101492.72
2022-10-15T01:49:56.250Z,101489.25
2022-10-15T01:55:00.105Z,101487.19
2022-10-15T01:57:31.111Z,101481.38
2022-10-15T01:59:59.417Z,101481.38
2022-10-15T02:02:27.281Z,101473.28
2022-10-15T02:04:55.696Z,101466.91
2022-10-15T02:07:43.122Z,101470.84
2022-10-15T02:11:03.480Z,101463.16
2022-10-15T02:13:52.273Z,101461.34
2022-10-15T02:16:50.387Z,101450.97
2022-10-15T02:19:54.390Z,101438.72
2022-10-15T02:22:36.022Z,101439.97
2022-10-15T02:25:11.453Z,101432.91
2022-10-15T02:27:41.143Z,101435.00
2022-10-15T02:30:19.997Z,101440.19
2022-10-15T02:33:02.134Z,101431.31
2022-10-15T02:35:57.288Z,101437.50
2022-10-15T02:38:36.026Z,101433.84
2022-10-15T02:41:18.165Z,101431.78
2022-10-15T02:43:54.916Z,101425.59
2022-10-15T02:47:01.654Z,101428.31
2022-10-15T02:49:38.560Z,101426.44
2022-10-15T02:52:12.869Z,101423.53
2022-10-15T02:54:49.282Z,101418.16
2022-10-15T02:57:27.247Z,101421.28
2022-10-15T03:00:04.569Z,101416.94
2022-10-15T03:02:42.155Z,101414.44
2022-10-15T03:05:18.510Z,101420.22
2022-10-15T03:07:46.807Z,101408.03
2022-10-15T03:10:17.317Z,101409.28
2022-10-15T03:12:45.199Z,101404.53
2022-10-15T03:15:14.586Z,101402.63
2022-10-15T03:17:44.499Z,101400.97
2022-10-15T03:20:12.750Z,101404.91
2022-10-15T03:22:40.547Z,101408.41
2022-10-15T03:25:08.400Z,101408.78
2022-10-15T03:27:37.231Z,101403.63
2022-10-15T03:30:14.308Z,101400.97
2022-10-15T03:35:11.242Z,101398.38
2022-10-15T03:37:38.882Z,101399.16
2022-10-15T03:40:13.442Z,101401.50
2022-10-15T03:42:43.975Z,101402.47
2022-10-15T03:45:12.695Z,101405.81
2022-10-15T03:47:40.204Z,101395.72
2022-10-15T03:50:08.691Z,101400.06
2022-10-15T03:52:38.507Z,101394.69
2022-10-15T03:55:07.159Z,101391.19
2022-10-15T03:57:35.211Z,101403.81
2022-10-15T04:00:08.985Z,101403.81
2022-10-15T04:02:42.135Z,101390.38
2022-10-15T04:05:21.176Z,101400.28
2022-10-15T04:07:53.777Z,101395.75
2022-10-15T04:10:23.425Z,101393.69
2022-10-15T04:12:51.715Z,101392.44
2022-10-15T04:15:19.755Z,101392.00
2022-10-15T04:17:56.184Z,101395.53
2022-10-15T04:20:26.261Z,101393.25
2022-10-15T04:22:53.818Z,101389.94
2022-10-15T04:25:23.174Z,101397.16
2022-10-15T04:27:50.756Z,101385.59
2022-10-15T04:30:22.810Z,101384.13
2022-10-15T04:32:55.908Z,101385.38
2022-10-15T04:35:23.865Z,101381.44
2022-10-15T04:38:02.177Z,101387.84
2022-10-15T04:40:49.615Z,101394.69
2022-10-15T04:43:18.246Z,101391.78
2022-10-15T04:45:46.287Z,101394.03
2022-10-15T04:48:19.627Z,101393.44
2022-10-15T04:50:47.599Z,101391.19
2022-10-15T04:53:19.375Z,101394.69
2022-10-15T04:55:51.170Z,101395.13
2022-10-15T04:58:18.646Z,101392.22
2022-10-15T05:00:46.410Z,101393.47
2022-10-15T05:03:37.557Z,101393.44
2022-10-15T05:06:20.448Z,101393.47
2022-10-15T05:08:49.791Z,101393.88
2022-10-15T05:11:24.959Z,101393.25
2022-10-15T05:13:56.456Z,101386.25
2022-10-15T05:16:27.967Z,101394.69
2022-10-15T05:18:59.440Z,101396.34
2022-10-15T05:21:31.664Z,101390.56
2022-10-15T05:24:05.705Z,101389.72
2022-10-15T05:27:02.761Z,101378.97
2022-10-15T05:29:33.843Z,101387.88
2022-10-15T05:32:01.416Z,101395.53
2022-10-15T05:34:31.013Z,101394.69
2022-10-15T05:37:09.043Z,101393.28
2022-10-15T05:39:41.848Z,101386.84
2022-10-15T05:42:11.599Z,101397.78
2022-10-15T05:44:42.854Z,101389.31
2022-10-15T05:47:12.615Z,101384.97
2022-10-15T05:49:41.695Z,101388.50
2022-10-15T05:52:17.760Z,101381.69
2022-10-15T05:55:07.416Z,101388.06
2022-10-15T05:57:35.041Z,101387.06
2022-10-15T06:00:07.148Z,101394.06
2022-10-15T06:02:41.381Z,101391.59
2022-10-15T06:05:09.378Z,101391.59
2022-10-15T06:07:37.224Z,101389.75
2022-10-15T06:10:06.244Z,101387.25
2022-10-15T06:12:39.578Z,101394.69
2022-10-15T06:15:07.775Z,101391.59
2022-10-15T06:17:35.233Z,101388.47
2022-10-15T06:20:02.630Z,101385.19
2022-10-15T06:22:33.369Z,101391.00
2022-10-15T06:25:03.214Z,101397.59
2022-10-15T06:27:31.233Z,101389.13
2022-10-15T06:29:58.688Z,101388.09
2022-10-15T06:32:26.219Z,101383.53
2022-10-15T06:34:53.911Z,101386.41
2022-10-15T06:37:21.567Z,101385.56
2022-10-15T06:39:49.185Z,101392.22
2022-10-15T06:42:16.454Z,101388.94
2022-10-15T06:44:48.372Z,101394.09
2022-10-15T06:47:17.814Z,101391.34
2022-10-15T06:49:48.270Z,101398.13
2022-10-15T06:52:16.168Z,101395.34
2022-10-15T06:54:52.625Z,101397.19
2022-10-15T06:57:23.099Z,101394.50
2022-10-15T06:59:51.727Z,101396.94
2022-10-15T07:02:19.775Z,101392.75
2022-10-15T07:04:48.266Z,101386.41
2022-10-15T07:07:20.292Z,101395.44
2022-10-15T07:09:49.509Z,101392.94
2022-10-15T07:12:31.395Z,101387.00
2022-10-15T07:14:59.877Z,101387.00
2022-10-15T07:17:29.096Z,101386.25
2022-10-15T07:19:58.870Z,101385.31
2022-10-15T07:22:26.705Z,101382.59
2022-10-15T07:24:54.486Z,101385.03
2022-10-15T07:27:23.841Z,101388.88
2022-10-15T07:30:01.065Z,101381.53
2022-10-15T07:32:33.957Z,101377.72
2022-10-15T07:35:11.665Z,101382.31
2022-10-15T07:37:39.643Z,101369.47
2022-10-15T07:40:13.143Z,101372.06
2022-10-15T07:42:44.264Z,101373.91
2022-10-15T07:45:19.260Z,101378.16
2022-10-15T07:47:49.477Z,101381.25
2022-10-15T07:50:17.701Z,101389.66
2022-10-15T07:52:46.715Z,101390.41
2022-10-15T07:55:14.275Z,101392.66
2022-10-15T07:57:43.515Z,101390.78
2022-10-15T08:00:11.549Z,101398.53
2022-10-15T08:02:43.597Z,101393.63
2022-10-15T08:05:11.032Z,101395.59
2022-10-15T08:07:46.384Z,101388.69
2022-10-15T08:10:18.931Z,101397.44
2022-10-15T08:12:48.490Z,101392.47
2022-10-15T08:15:16.027Z,101397.28
2022-10-15T08:17:50.364Z,101399.22
2022-10-15T08:20:19.235Z,101390.19
2022-10-15T08:25:36.152Z,101389.06
2022-10-15T08:28:03.666Z,101387.56
2022-10-15T08:30:31.176Z,101390.31
2022-10-15T08:33:24.467Z,101388.78
2022-10-15T08:35:54.494Z,101383.75
2022-10-15T08:38:22.012Z,101377.88
2022-10-15T08:40:52.448Z,101388.56
2022-10-15T08:43:45.427Z,101387.78
2022-10-15T08:46:30.674Z,101384.34
2022-10-15T08:49:01.102Z,101382.38
2022-10-15T08:51:40.509Z,101378.34
2022-10-15T08:54:14.528Z,101368.69
2022-10-15T08:56:47.656Z,101375.41
2022-10-15T08:59:32.001Z,101374.13
2022-10-15T09:02:05.189Z,101367.28
2022-10-15T09:04:55.897Z,101366.91
2022-10-15T09:08:06.185Z,101377.41
2022-10-15T09:10:40.731Z,101370.78
2022-10-15T09:13:25.077Z,101377.00
2022-10-15T09:16:31.484Z,101375.34
2022-10-15T09:19:03.363Z,101378.44
2022-10-15T09:21:59.857Z,101388.91
2022-10-15T09:28:39.536Z,101358.91
2022-10-15T09:31:10.393Z,101364.91
2022-10-15T09:33:45.771Z,101356.13
2022-10-15T09:36:28.348Z,101361.81
2022-10-15T09:39:15.673Z,101367.38
2022-10-15T09:42:04.861Z,101355.81
2022-10-15T09:44:46.140Z,101362.44
2022-10-15T09:47:27.683Z,101363.72
2022-10-15T09:50:00.820Z,101357.88
2022-10-15T09:53:13.344Z,101359.09
2022-10-15T09:55:54.411Z,101353.41
2022-10-15T09:58:39.705Z,101352.72
2022-10-15T10:01:17.094Z,101353.97
2022-10-15T10:03:44.657Z,101347.22
2022-10-15T10:06:15.013Z,101343.53
2022-10-15T10:08:58.316Z,101355.09
2022-10-15T10:11:42.817Z,101347.88
2022-10-15T10:14:31.436Z,101350.69
2022-10-15T10:17:21.730Z,101347.44
2022-10-15T10:20:10.710Z,101349.38
2022-10-15T10:23:24.726Z,101352.97
2022-10-15T10:25:52.494Z,101352.16
2022-10-15T10:28:31.879Z,101354.09
2022-10-15T10:31:04.326Z,101348.97
2022-10-15T10:33:42.852Z,101350.59
2022-10-15T10:36:25.393Z,101350.59
2022-10-15T10:39:04.891Z,101357.50
2022-10-15T10:42:07.248Z,101347.59
2022-10-15T10:44:41.806Z,101348.97
2022-10-15T10:47:12.429Z,101345.13
2022-10-15T10:49:46.992Z,101343.84
2022-10-15T10:52:41.544Z,101341.97
2022-10-15T10:55:27.217Z,101335.75
2022-10-15T10:58:00.505Z,101339.34
2022-10-15T11:00:41.503Z,101335.84
2022-10-15T11:03:18.350Z,101333.69
2022-10-15T11:05:55.486Z,101331.03
2022-10-15T11:08:25.866Z,101330.25
2022-10-15T11:11:04.756Z,101322.34
2022-10-15T11:14:00.290Z,101327.47
2022-10-15T11:16:48.974Z,101325.63
2022-10-15T11:19:59.646Z,101324.97
2022-10-15T11:22:30.147Z,101314.19
2022-10-15T11:25:08.146Z,101322.09
2022-10-15T11:27:53.545Z,101312.66
2022-10-15T11:30:39.840Z,101316.28
2022-10-15T11:33:32.708Z,101310.84
2022-10-15T11:36:17.799Z,101315.69
2022-10-15T11:38:54.355Z,101312.72
2022-10-15T11:41:44.271Z,101314.94
2022-10-15T11:44:38.597Z,101308.41
2022-10-15T11:47:15.783Z,101308.44
2022-10-15T11:50:09.381Z,101306.81
2022-10-15T11:53:31.919Z,101299.81
2022-10-15T11:56:13.735Z,101294.06
2022-10-15T11:58:46.945Z,101297.63
2022-10-15T12:01:20.375Z,101283.44
2022-10-15T12:04:07.437Z,101277.25
2022-10-15T12:06:40.702Z,101273.69
2022-10-15T12:09:14.489Z,101269.09
2022-10-15T12:11:51.028Z,101271.06
2022-10-15T12:14:45.034Z,101261.81
2022-10-15T12:17:22.269Z,101256.94
2022-10-15T12:20:01.073Z,101248.53
2022-10-15T12:22:39.705Z,101249.09
2022-10-15T12:25:36.726Z,101244.47
2022-10-15T12:28:25.360Z,101239.78
2022-10-15T12:31:01.945Z,101234.63
2022-10-15T12:33:29.529Z,101233.47
2022-10-15T12:36:00.997Z,101230.19
2022-10-15T12:38:32.432Z,101230.72
2022-10-15T12:41:14.814Z,101224.44
2022-10-15T12:43:45.761Z,101220.38
2022-10-15T12:46:14.455Z,101219.81
2022-10-15T12:48:47.454Z,101215.72
2022-10-15T12:51:35.793Z,101214.41
2022-10-15T12:54:03.756Z,101206.78
2022-10-15T12:56:40.970Z,101200.78
2022-10-15T12:59:44.021Z,101197.56
2022-10-15T13:05:32.196Z,101173.63
2022-10-15T13:08:14.263Z,101173.63
2022-10-15T13:10:50.361Z,101168.44
2022-10-15T13:13:23.153Z,101168.16
2022-10-15T13:16:08.547Z,101164.91
2022-10-15T13:18:36.745Z,101163.22
2022-10-15T13:21:05.363Z,101163.19
2022-10-15T13:23:46.251Z,101164.78
2022-10-15T13:26:16.766Z,101153.31
2022-10-15T13:28:48.982Z,101148.66
2022-10-15T13:31:46.910Z,101152.19
2022-10-15T13:34:34.496Z,101153.25
2022-10-15T13:37:03.507Z,101162.47
2022-10-15T13:42:20.074Z,101146.19
2022-10-15T13:45:08.166Z,101139.88
2022-10-15T13:47:47.731Z,101136.63
2022-10-15T13:50:22.034Z,101135.84
2022-10-15T13:53:34.560Z,101141.47
2022-10-15T13:56:06.341Z,101129.75
2022-10-15T13:58:35.999Z,101125.41
2022-10-15T14:01:16.227Z,101132.47
2022-10-15T14:04:16.175Z,101140.38
2022-10-15T14:07:03.925Z,101137.38
2022-10-15T14:09:35.241Z,101137.38
2022-10-15T14:12:06.980Z,101131.69
2022-10-15T14:14:49.867Z,101132.97
2022-10-15T14:17:17.813Z,101137.91
2022-10-15T14:20:26.831Z,101134.34
2022-10-15T14:22:55.511Z,101131.09
2022-10-15T14:25:25.486Z,101134.03
2022-10-15T14:27:53.516Z,101131.09
2022-10-15T14:30:40.027Z,101127.53
2022-10-15T14:33:35.277Z,101130.78
2022-10-15T14:36:10.517Z,101139.47
2022-10-15T14:38:47.518Z,101127.47
2022-10-15T14:41:32.438Z,101134.03
2022-10-15T14:44:12.028Z,101140.53
2022-10-15T14:46:49.400Z,101132.91
2022-10-15T14:49:28.297Z,101141.91
2022-10-15T14:52:00.363Z,101136.47
2022-10-15T14:54:32.027Z,101135.91
2022-10-15T14:57:00.114Z,101134.19
2022-10-15T14:59:37.171Z,101135.78
2022-10-15T15:02:08.027Z,101138.72
2022-10-15T15:04:52.747Z,101130.06
2022-10-15T15:07:22.488Z,101134.69
2022-10-15T15:09:51.989Z,101128.50
2022-10-15T15:12:25.646Z,101131.97
2022-10-15T15:14:55.471Z,101129.50
2022-10-15T15:17:29.085Z,101133.34
2022-10-15T15:19:58.183Z,101124.16
2022-10-15T15:22:31.813Z,101129.88
2022-10-15T15:25:14.652Z,101126.91
2022-10-15T15:27:42.599Z,101133.44
2022-10-15T15:30:21.691Z,101124.81
2022-10-15T15:32:50.223Z,101117.72
2022-10-15T15:35:35.615Z,101125.63
2022-10-15T15:38:15.406Z,101119.31
2022-10-15T15:40:43.840Z,101118.78
2022-10-15T15:43:14.596Z,101118.75
2022-10-15T15:45:43.219Z,101120.88
2022-10-15T15:48:19.806Z,101121.88
2022-10-15T15:51:09.637Z,101122.41
2022-10-15T15:53:42.586Z,101122.41
2022-10-15T15:56:23.736Z,101113.66
2022-10-15T15:59:00.770Z,101121.00
2022-10-15T16:01:31.637Z,101117.69
2022-10-15T16:04:15.599Z,101113.16
2022-10-15T16:06:52.983Z,101118.03
2022-10-15T16:09:40.713Z,101121.50
2022-10-15T16:12:15.785Z,101116.34
2022-10-15T16:14:55.881Z,101117.03
2022-10-15T16:17:25.728Z,101121.06
2022-10-15T16:19:54.401Z,101119.41
2022-10-15T16:22:22.869Z,101118.91
2022-10-15T16:24:50.998Z,101113.97
2022-10-15T16:27:18.938Z,101127.47
2022-10-15T16:29:46.400Z,101126.38
2022-10-15T16:32:14.473Z,101125.47
2022-10-15T16:34:42.510Z,101133.81
2022-10-15T16:37:10.264Z,101129.44
2022-10-15T16:39:38.351Z,101131.84
2022-10-15T16:42:06.256Z,101127.19
2022-10-15T16:44:34.004Z,101134.81
2022-10-15T16:47:02.408Z,101129.97
2022-10-15T16:49:31.659Z,101125.59
2022-10-15T16:52:02.667Z,101124.22
2022-10-15T16:54:30.597Z,101117.47
2022-10-15T16:56:58.394Z,101121.25
2022-10-15T16:59:33.302Z,101117.41
2022-10-15T17:02:01.949Z,101109.78
2022-10-15T17:04:29.469Z,101113.81
2022-10-15T17:06:57.238Z,101117.38
2022-10-15T17:09:25.100Z,101115.72
2022-10-15T17:11:53.166Z,101124.13
2022-10-15T17:14:21.440Z,101121.97
2022-10-15T17:16:51.562Z,101123.03
2022-10-15T17:19:24.334Z,101119.50
2022-10-15T17:21:53.118Z,101123.88
2022-10-15T17:24:29.716Z,101121.16
2022-10-15T17:27:01.450Z,101130.63
2022-10-15T17:29:32.466Z,101129.19
2022-10-15T17:32:06.515Z,101132.97
2022-10-15T17:34:44.296Z,101130.22
2022-10-15T17:37:11.983Z,101128.81
2022-10-15T17:39:41.173Z,101145.91
2022-10-15T17:42:08.593Z,101137.78
2022-10-15T17:44:36.159Z,101143.47
2022-10-15T17:47:04.072Z,101148.88
2022-10-15T17:49:31.970Z,101153.25
2022-10-15T17:51:59.479Z,101148.88
2022-10-15T17:54:27.079Z,101149.13
2022-10-15T17:56:54.880Z,101157.28
2022-10-15T17:59:27.412Z,101150.19
2022-10-15T18:01:59.324Z,101158.59
2022-10-15T18:04:29.243Z,101161.56
2022-10-15T18:06:57.288Z,101169.69
2022-10-15T18:09:28.632Z,101175.94
2022-10-15T18:12:00.842Z,101177.25
2022-10-15T18:14:55.496Z,101176.44
2022-10-15T18:17:25.418Z,101183.78
2022-10-15T18:19:53.416Z,101180.22
2022-10-15T18:22:21.403Z,101178.34
2022-10-15T18:24:49.316Z,101180.47
2022-10-15T18:27:26.787Z,101183.78
2022-10-15T18:29:54.747Z,101187.28
2022-10-15T18:32:22.209Z,101190.25
2022-10-15T18:34:49.625Z,101184.50
2022-10-15T18:37:17.149Z,101191.31
2022-10-15T18:39:44.794Z,101185.66
2022-10-15T18:42:17.508Z,101181.31
2022-10-15T18:44:45.083Z,101188.63
2022-10-15T18:47:12.877Z,101184.03
2022-10-15T18:49:43.647Z,101188.63
2022-10-15T18:52:21.404Z,101184.28
2022-10-15T18:54:59.030Z,101189.38
2022-10-15T18:57:27.060Z,101195.56
2022-10-15T18:59:54.689Z,101195.56
2022-10-15T19:02:26.466Z,101194.72
2022-10-15T19:05:04.842Z,101197.69
2022-10-15T19:07:32.867Z,101201.47
2022-10-15T19:10:01.278Z,101214.22
2022-10-15T19:12:29.369Z,101217.19
2022-10-15T19:14:57.123Z,101219.03
2022-10-15T19:17:24.833Z,101223.66
2022-10-15T19:19:52.801Z,101217.91
2022-10-15T19:22:20.840Z,101220.63
2022-10-15T19:24:48.709Z,101234.16
2022-10-15T19:27:16.671Z,101229.25
2022-10-15T19:29:45.178Z,101229.75
2022-10-15T19:32:13.919Z,101229.19
2022-10-15T19:34:43.653Z,101231.91
2022-10-15T19:37:12.436Z,101226.72
2022-10-15T19:39:48.807Z,101232.38
2022-10-15T19:42:17.800Z,101225.09
2022-10-15T19:44:45.589Z,101237.00
2022-10-15T19:47:21.106Z,101232.38
2022-10-15T19:50:33.407Z,101238.06
2022-10-15T19:53:14.734Z,101240.19
2022-10-15T19:56:08.677Z,101246.94
2022-10-15T19:58:38.052Z,101255.88
2022-10-15T20:01:15.894Z,101248.81
2022-10-15T20:03:50.280Z,101255.88
2022-10-15T20:06:25.101Z,101256.38
2022-10-15T20:08:55.867Z,101252.00
2022-10-15T20:11:33.267Z,101255.78
2022-10-15T20:14:03.251Z,101257.69
2022-10-15T20:16:33.251Z,101261.72
2022-10-15T20:19:03.409Z,101262.56
2022-10-15T20:21:32.026Z,101260.66
2022-10-15T20:23:59.508Z,101274.69
2022-10-15T20:26:26.919Z,101263.28
2022-10-15T20:28:54.532Z,101262.34
2022-10-15T20:31:25.494Z,101261.19
2022-10-15T20:34:01.269Z,101270.47
2022-10-15T20:36:29.790Z,101274.47
2022-10-15T20:39:05.350Z,101283.69
2022-10-15T20:41:32.783Z,101277.44
2022-10-15T20:44:00.518Z,101277.44
2022-10-15T20:46:36.122Z,101280.66
2022-10-15T20:51:42.468Z,101282.53
2022-10-15T20:54:12.486Z,101284.16
2022-10-15T20:56:41.178Z,101285.81
2022-10-15T20:59:09.323Z,101290.31
2022-10-15T21:01:37.684Z,101296.25
2022-10-15T21:04:08.833Z,101295.31
2022-10-15T21:06:36.494Z,101294.84
2022-10-15T21:09:08.302Z,101296.72
2022-10-15T21:12:42.371Z,101294.47
2022-10-15T21:15:15.710Z,101301.44
2022-10-15T21:17:44.428Z,101304.16
2022-10-15T21:20:12.411Z,101300.41
2022-10-15T21:22:42.987Z,101296.28
2022-10-15T21:25:10.782Z,101296.53
2022-10-15T21:27:38.814Z,101300.78
2022-10-15T21:30:08.188Z,101302.94
2022-10-15T21:32:44.541Z,101311.31
2022-10-15T21:35:13.421Z,101306.09
2022-10-15T21:37:40.801Z,101307.19
2022-10-15T21:40:21.651Z,101315.88
2022-10-15T21:42:55.557Z,101324.72
2022-10-15T21:45:23.287Z,101321.44
2022-10-15T21:48:24.313Z,101319.31
2022-10-15T21:50:56.348Z,101324.97
2022-10-15T21:53:24.193Z,101320.63
2022-10-15T21:55:56.620Z,101327.09
2022-10-15T21:58:28.167Z,101328.16
2022-10-15T22:01:55.382Z,101329.47
2022-10-15T22:04:35.752Z,101326.16
2022-10-15T22:07:04.061Z,101327.94
2022-10-15T22:09:31.920Z,101330.66
2022-10-15T22:11:59.968Z,101332.19
2022-10-15T22:14:31.757Z,101329.72
2022-10-15T22:17:07.074Z,101332.94
2022-10-15T22:19:52.918Z,101335.53
2022-10-15T22:22:25.190Z,101338.81
2022-10-15T22:25:08.094Z,101332.22
2022-10-15T22:27:36.774Z,101330.31
2022-10-15T22:30:08.211Z,101332.22
2022-10-15T22:32:36.250Z,101330.81
2022-10-15T22:35:04.902Z,101333.50
2022-10-15T22:37:32.738Z,101337.88
2022-10-15T22:40:14.178Z,101335.16
2022-10-15T22:42:42.709Z,101342.44
2022-10-15T22:45:30.319Z,101339.16
2022-10-15T22:48:27.865Z,101343.03
2022-10-15T22:51:41.539Z,101335.53
2022-10-15T22:54:24.768Z,101356.13
2022-10-15T23:00:50.710Z,101351.88
2022-10-15T23:03:40.414Z,101354.72
2022-10-15T23:06:32.628Z,101355.75
2022-10-15T23:09:06.158Z,101360.13
2022-10-15T23:11:50.515Z,101357.41
2022-10-15T23:14:24.830Z,101360.00
2022-10-15T23:17:03.144Z,101357.75
2022-10-15T23:19:33.735Z,101353.66
2022-10-15T23:22:06.198Z,101342.00
2022-10-15T23:24:35.416Z,101348.22
2022-10-15T23:27:05.348Z,101352.59
2022-10-15T23:29:33.629Z,101351.06
2022-10-15T23:32:01.072Z,101343.78
2022-10-15T23:34:30.042Z,101341.19
2022-10-15T23:36:59.967Z,101330.13
2022-10-15T23:39:30.001Z,101339.19
2022-10-15T23:42:01.895Z,101330.72
2022-10-15T23:44:29.887Z,101332.13
2022-10-15T23:46:57.492Z,101326.13
2022-10-15T23:49:24.986Z,101329.06
2022-10-15T23:51:57.833Z,101321.78
2022-10-15T23:54:49.137Z,101326.34
2022-10-15T23:57:22.385Z,101329.53
